sensor_id;sensor_type;location;lat;lon;timestamp;P1;durP1;ratioP1;P2;durP2;ratioP2
14019;SDS011;7085;51.428;6.796;2022-11-20T00:01:25;18.80;;;11.30;;
14019;SDS011;7085;51.428;6.796;2022-11-20T00:03:53;14.80;;;10.30;;
14019;SDS011;7085;51.428;6.796;2022-11-20T00:06:21;16.70;;;10.13;;
14019;SDS011;7085;51.428;6.796;2022-11-20T00:08:48;18.30;;;11.30;;
14019;SDS011;7085;51.428;6.796;2022-11-20T00:11:16;18.27;;;12.03;;
14019;SDS011;7085;51.428;6.796;2022-11-20T00:13:43;19.33;;;11.20;;
14019;SDS011;7085;51.428;6.796;2022-11-20T00:16:13;17.07;;;10.93;;
14019;SDS011;7085;51.428;6.796;2022-11-20T00:18:40;18.27;;;11.97;;
14019;SDS011;7085;51.428;6.796;2022-11-20T00:21:09;16.97;;;11.00;;
14019;SDS011;7085;51.428;6.796;2022-11-20T00:23:37;15.03;;;10.87;;
14019;SDS011;7085;51.428;6.796;2022-11-20T00:26:04;18.80;;;11.43;;
14019;SDS011;7085;51.428;6.796;2022-11-20T00:28:32;19.63;;;12.57;;
14019;SDS011;7085;51.428;6.796;2022-11-20T00:31:00;21.47;;;13.03;;
14019;SDS011;7085;51.428;6.796;2022-11-20T00:33:29;17.43;;;12.23;;
14019;SDS011;7085;51.428;6.796;2022-11-20T00:35:58;19.23;;;12.23;;
14019;SDS011;7085;51.428;6.796;2022-11-20T00:38:26;18.60;;;12.30;;
14019;SDS011;7085;51.428;6.796;2022-11-20T00:40:54;16.90;;;11.63;;
14019;SDS011;7085;51.428;6.796;2022-11-20T00:43:21;17.73;;;12.40;;
14019;SDS011;7085;51.428;6.796;2022-11-20T00:45:48;18.57;;;12.33;;
14019;SDS011;7085;51.428;6.796;2022-11-20T00:48:15;18.00;;;11.43;;
14019;SDS011;7085;51.428;6.796;2022-11-20T00:50:43;17.40;;;11.77;;
14019;SDS011;7085;51.428;6.796;2022-11-20T00:53:10;17.40;;;12.40;;
14019;SDS011;7085;51.428;6.796;2022-11-20T00:55:38;18.40;;;12.00;;
14019;SDS011;7085;51.428;6.796;2022-11-20T00:58:05;17.97;;;11.27;;
14019;SDS011;7085;51.428;6.796;2022-11-20T01:00:32;18.03;;;12.53;;
14019;SDS011;7085;51.428;6.796;2022-11-20T01:02:59;19.20;;;12.03;;
14019;SDS011;7085;51.428;6.796;2022-11-20T01:05:26;27.47;;;12.60;;
14019;SDS011;7085;51.428;6.796;2022-11-20T01:07:54;18.37;;;12.23;;
14019;SDS011;7085;51.428;6.796;2022-11-20T01:10:21;18.30;;;12.13;;
14019;SDS011;7085;51.428;6.796;2022-11-20T01:12:48;17.10;;;12.03;;
14019;SDS011;7085;51.428;6.796;2022-11-20T01:15:35;19.00;;;13.03;;
14019;SDS011;7085;51.428;6.796;2022-11-20T01:18:02;17.87;;;11.83;;
14019;SDS011;7085;51.428;6.796;2022-11-20T01:20:30;18.40;;;12.20;;
14019;SDS011;7085;51.428;6.796;2022-11-20T01:22:58;17.37;;;12.20;;
14019;SDS011;7085;51.428;6.796;2022-11-20T01:25:25;17.50;;;13.13;;
14019;SDS011;7085;51.428;6.796;2022-11-20T01:27:52;17.00;;;11.97;;
14019;SDS011;7085;51.428;6.796;2022-11-20T01:30:19;17.80;;;12.57;;
14019;SDS011;7085;51.428;6.796;2022-11-20T01:32:46;18.03;;;12.60;;
14019;SDS011;7085;51.428;6.796;2022-11-20T01:35:13;17.83;;;11.83;;
14019;SDS011;7085;51.428;6.796;2022-11-20T01:37:40;23.53;;;13.67;;
14019;SDS011;7085;51.428;6.796;2022-11-20T01:40:10;20.37;;;13.47;;
14019;SDS011;7085;51.428;6.796;2022-11-20T01:42:37;17.07;;;11.00;;
14019;SDS011;7085;51.428;6.796;2022-11-20T01:48:07;18.33;;;11.90;;
14019;SDS011;7085;51.428;6.796;2022-11-20T01:50:35;20.40;;;12.47;;
14019;SDS011;7085;51.428;6.796;2022-11-20T01:53:03;21.00;;;12.37;;
14019;SDS011;7085;51.428;6.796;2022-11-20T01:55:32;19.17;;;12.57;;
14019;SDS011;7085;51.428;6.796;2022-11-20T01:57:59;16.57;;;11.30;;
14019;SDS011;7085;51.428;6.796;2022-11-20T02:00:27;16.90;;;11.57;;
14019;SDS011;7085;51.428;6.796;2022-11-20T02:02:55;21.73;;;12.23;;
14019;SDS011;7085;51.428;6.796;2022-11-20T02:05:25;15.70;;;11.00;;
14019;SDS011;7085;51.428;6.796;2022-11-20T02:07:54;15.00;;;10.97;;
14019;SDS011;7085;51.428;6.796;2022-11-20T02:10:22;20.00;;;11.53;;
14019;SDS011;7085;51.428;6.796;2022-11-20T02:12:51;21.23;;;12.63;;
14019;SDS011;7085;51.428;6.796;2022-11-20T02:15:36;17.40;;;12.13;;
14019;SDS011;7085;51.428;6.796;2022-11-20T02:18:04;17.83;;;11.93;;
14019;SDS011;7085;51.428;6.796;2022-11-20T02:20:32;21.50;;;12.13;;
14019;SDS011;7085;51.428;6.796;2022-11-20T02:22:59;18.33;;;12.53;;
14019;SDS011;7085;51.428;6.796;2022-11-20T02:25:30;17.93;;;12.73;;
14019;SDS011;7085;51.428;6.796;2022-11-20T02:27:59;22.20;;;12.27;;
14019;SDS011;7085;51.428;6.796;2022-11-20T02:30:26;18.13;;;12.53;;
14019;SDS011;7085;51.428;6.796;2022-11-20T02:32:53;17.03;;;12.23;;
14019;SDS011;7085;51.428;6.796;2022-11-20T02:35:40;16.07;;;10.77;;
14019;SDS011;7085;51.428;6.796;2022-11-20T02:38:08;16.93;;;11.13;;
14019;SDS011;7085;51.428;6.796;2022-11-20T02:40:36;19.03;;;12.67;;
14019;SDS011;7085;51.428;6.796;2022-11-20T02:43:03;19.33;;;12.60;;
14019;SDS011;7085;51.428;6.796;2022-11-20T02:45:30;18.43;;;12.77;;
14019;SDS011;7085;51.428;6.796;2022-11-20T02:47:57;18.73;;;11.67;;
14019;SDS011;7085;51.428;6.796;2022-11-20T02:50:24;17.77;;;13.57;;
14019;SDS011;7085;51.428;6.796;2022-11-20T02:52:51;17.50;;;11.27;;
14019;SDS011;7085;51.428;6.796;2022-11-20T02:55:18;19.53;;;12.63;;
14019;SDS011;7085;51.428;6.796;2022-11-20T02:57:47;17.10;;;12.30;;
14019;SDS011;7085;51.428;6.796;2022-11-20T03:00:14;16.90;;;11.97;;
14019;SDS011;7085;51.428;6.796;2022-11-20T03:02:41;16.90;;;12.73;;
14019;SDS011;7085;51.428;6.796;2022-11-20T03:05:08;20.23;;;11.80;;
14019;SDS011;7085;51.428;6.796;2022-11-20T03:07:35;22.40;;;12.13;;
14019;SDS011;7085;51.428;6.796;2022-11-20T03:10:03;20.20;;;12.73;;
14019;SDS011;7085;51.428;6.796;2022-11-20T03:12:30;18.23;;;11.80;;
14019;SDS011;7085;51.428;6.796;2022-11-20T03:14:58;18.07;;;11.57;;
14019;SDS011;7085;51.428;6.796;2022-11-20T03:17:25;19.67;;;12.40;;
14019;SDS011;7085;51.428;6.796;2022-11-20T03:19:54;17.20;;;12.73;;
14019;SDS011;7085;51.428;6.796;2022-11-20T03:22:21;19.73;;;11.50;;
14019;SDS011;7085;51.428;6.796;2022-11-20T03:24:48;16.43;;;12.60;;
14019;SDS011;7085;51.428;6.796;2022-11-20T03:27:16;22.87;;;12.07;;
14019;SDS011;7085;51.428;6.796;2022-11-20T03:29:43;16.80;;;12.57;;
14019;SDS011;7085;51.428;6.796;2022-11-20T03:32:11;20.97;;;12.33;;
14019;SDS011;7085;51.428;6.796;2022-11-20T03:34:38;18.43;;;12.43;;
14019;SDS011;7085;51.428;6.796;2022-11-20T03:37:05;20.40;;;12.17;;
14019;SDS011;7085;51.428;6.796;2022-11-20T03:39:32;16.33;;;11.90;;
14019;SDS011;7085;51.428;6.796;2022-11-20T03:41:59;21.17;;;12.60;;
14019;SDS011;7085;51.428;6.796;2022-11-20T03:44:26;22.60;;;13.00;;
14019;SDS011;7085;51.428;6.796;2022-11-20T03:46:54;17.70;;;12.57;;
14019;SDS011;7085;51.428;6.796;2022-11-20T03:49:22;16.20;;;12.67;;
14019;SDS011;7085;51.428;6.796;2022-11-20T03:51:49;18.83;;;12.23;;
14019;SDS011;7085;51.428;6.796;2022-11-20T03:54:16;20.07;;;12.27;;
14019;SDS011;7085;51.428;6.796;2022-11-20T03:56:43;24.07;;;14.03;;
14019;SDS011;7085;51.428;6.796;2022-11-20T03:59:10;15.30;;;11.57;;
14019;SDS011;7085;51.428;6.796;2022-11-20T04:01:37;18.23;;;11.90;;
14019;SDS011;7085;51.428;6.796;2022-11-20T04:04:04;16.23;;;11.53;;
14019;SDS011;7085;51.428;6.796;2022-11-20T04:06:35;18.33;;;13.00;;
14019;SDS011;7085;51.428;6.796;2022-11-20T04:09:02;17.50;;;11.87;;
14019;SDS011;7085;51.428;6.796;2022-11-20T04:11:30;21.37;;;12.37;;
14019;SDS011;7085;51.428;6.796;2022-11-20T04:13:58;17.63;;;11.87;;
14019;SDS011;7085;51.428;6.796;2022-11-20T04:16:25;17.20;;;11.20;;
14019;SDS011;7085;51.428;6.796;2022-11-20T04:18:53;17.47;;;12.40;;
14019;SDS011;7085;51.428;6.796;2022-11-20T04:21:21;17.90;;;12.20;;
14019;SDS011;7085;51.428;6.796;2022-11-20T04:23:49;16.10;;;12.17;;
14019;SDS011;7085;51.428;6.796;2022-11-20T04:26:17;18.87;;;12.73;;
14019;SDS011;7085;51.428;6.796;2022-11-20T04:28:45;18.10;;;12.37;;
14019;SDS011;7085;51.428;6.796;2022-11-20T04:31:12;19.60;;;12.37;;
14019;SDS011;7085;51.428;6.796;2022-11-20T04:33:40;18.13;;;12.43;;
14019;SDS011;7085;51.428;6.796;2022-11-20T04:36:07;18.27;;;11.37;;
14019;SDS011;7085;51.428;6.796;2022-11-20T04:38:39;18.13;;;11.47;;
14019;SDS011;7085;51.428;6.796;2022-11-20T04:41:08;16.50;;;12.00;;
14019;SDS011;7085;51.428;6.796;2022-11-20T04:43:37;18.60;;;11.37;;
14019;SDS011;7085;51.428;6.796;2022-11-20T04:46:04;19.50;;;12.20;;
14019;SDS011;7085;51.428;6.796;2022-11-20T04:48:31;17.07;;;11.60;;
14019;SDS011;7085;51.428;6.796;2022-11-20T04:51:02;16.90;;;11.93;;
14019;SDS011;7085;51.428;6.796;2022-11-20T04:53:29;20.30;;;11.30;;
14019;SDS011;7085;51.428;6.796;2022-11-20T04:55:59;15.67;;;11.47;;
14019;SDS011;7085;51.428;6.796;2022-11-20T04:58:27;18.90;;;11.50;;
14019;SDS011;7085;51.428;6.796;2022-11-20T05:01:00;19.50;;;11.50;;
14019;SDS011;7085;51.428;6.796;2022-11-20T05:03:27;17.50;;;12.80;;
14019;SDS011;7085;51.428;6.796;2022-11-20T05:05:54;22.63;;;13.13;;
14019;SDS011;7085;51.428;6.796;2022-11-20T05:08:22;18.47;;;12.60;;
14019;SDS011;7085;51.428;6.796;2022-11-20T05:10:49;15.73;;;11.53;;
14019;SDS011;7085;51.428;6.796;2022-11-20T05:13:16;19.50;;;12.73;;
14019;SDS011;7085;51.428;6.796;2022-11-20T05:15:44;23.43;;;13.10;;
14019;SDS011;7085;51.428;6.796;2022-11-20T05:18:10;18.90;;;11.30;;
14019;SDS011;7085;51.428;6.796;2022-11-20T05:20:37;19.30;;;12.33;;
14019;SDS011;7085;51.428;6.796;2022-11-20T05:23:04;17.07;;;11.53;;
14019;SDS011;7085;51.428;6.796;2022-11-20T05:25:31;17.07;;;11.30;;
14019;SDS011;7085;51.428;6.796;2022-11-20T05:27:58;19.27;;;11.97;;
14019;SDS011;7085;51.428;6.796;2022-11-20T05:30:25;16.13;;;11.10;;
14019;SDS011;7085;51.428;6.796;2022-11-20T05:32:53;21.53;;;11.47;;
14019;SDS011;7085;51.428;6.796;2022-11-20T05:35:20;17.67;;;12.00;;
14019;SDS011;7085;51.428;6.796;2022-11-20T05:37:46;17.67;;;12.17;;
14019;SDS011;7085;51.428;6.796;2022-11-20T05:40:13;20.67;;;13.13;;
14019;SDS011;7085;51.428;6.796;2022-11-20T05:42:40;16.77;;;12.83;;
14019;SDS011;7085;51.428;6.796;2022-11-20T05:45:08;21.07;;;12.93;;
14019;SDS011;7085;51.428;6.796;2022-11-20T05:47:35;18.10;;;12.83;;
14019;SDS011;7085;51.428;6.796;2022-11-20T05:50:04;21.77;;;12.73;;
14019;SDS011;7085;51.428;6.796;2022-11-20T05:52:31;20.87;;;13.27;;
14019;SDS011;7085;51.428;6.796;2022-11-20T05:54:58;21.57;;;13.73;;
14019;SDS011;7085;51.428;6.796;2022-11-20T05:57:25;20.03;;;13.50;;
14019;SDS011;7085;51.428;6.796;2022-11-20T05:59:52;17.33;;;12.70;;
14019;SDS011;7085;51.428;6.796;2022-11-20T06:02:19;18.53;;;12.10;;
14019;SDS011;7085;51.428;6.796;2022-11-20T06:04:46;18.87;;;13.63;;
14019;SDS011;7085;51.428;6.796;2022-11-20T06:07:15;19.33;;;14.00;;
14019;SDS011;7085;51.428;6.796;2022-11-20T06:09:42;20.47;;;13.67;;
14019;SDS011;7085;51.428;6.796;2022-11-20T06:12:09;18.87;;;13.83;;
14019;SDS011;7085;51.428;6.796;2022-11-20T06:14:36;20.10;;;13.83;;
14019;SDS011;7085;51.428;6.796;2022-11-20T06:17:03;20.23;;;13.23;;
14019;SDS011;7085;51.428;6.796;2022-11-20T06:19:30;22.23;;;14.43;;
14019;SDS011;7085;51.428;6.796;2022-11-20T06:21:57;19.50;;;13.60;;
14019;SDS011;7085;51.428;6.796;2022-11-20T06:24:25;20.53;;;14.20;;
14019;SDS011;7085;51.428;6.796;2022-11-20T06:26:52;18.10;;;14.57;;
14019;SDS011;7085;51.428;6.796;2022-11-20T06:29:19;18.90;;;14.30;;
14019;SDS011;7085;51.428;6.796;2022-11-20T06:31:46;23.80;;;14.33;;
14019;SDS011;7085;51.428;6.796;2022-11-20T06:34:13;21.30;;;14.07;;
14019;SDS011;7085;51.428;6.796;2022-11-20T06:36:40;20.83;;;14.10;;
14019;SDS011;7085;51.428;6.796;2022-11-20T06:39:07;22.20;;;13.80;;
14019;SDS011;7085;51.428;6.796;2022-11-20T06:41:36;20.60;;;15.07;;
14019;SDS011;7085;51.428;6.796;2022-11-20T06:44:03;20.77;;;14.30;;
14019;SDS011;7085;51.428;6.796;2022-11-20T06:46:30;23.73;;;13.73;;
14019;SDS011;7085;51.428;6.796;2022-11-20T06:48:57;20.00;;;14.20;;
14019;SDS011;7085;51.428;6.796;2022-11-20T06:51:24;21.80;;;15.17;;
14019;SDS011;7085;51.428;6.796;2022-11-20T06:53:51;18.10;;;14.17;;
14019;SDS011;7085;51.428;6.796;2022-11-20T06:56:19;21.63;;;14.37;;
14019;SDS011;7085;51.428;6.796;2022-11-20T06:58:47;20.03;;;13.80;;
14019;SDS011;7085;51.428;6.796;2022-11-20T07:01:15;19.30;;;14.20;;
14019;SDS011;7085;51.428;6.796;2022-11-20T07:03:42;17.93;;;13.87;;
14019;SDS011;7085;51.428;6.796;2022-11-20T07:06:09;20.30;;;14.30;;
14019;SDS011;7085;51.428;6.796;2022-11-20T07:08:37;20.10;;;14.37;;
14019;SDS011;7085;51.428;6.796;2022-11-20T07:11:05;20.20;;;14.37;;
14019;SDS011;7085;51.428;6.796;2022-11-20T07:13:33;20.60;;;14.37;;
14019;SDS011;7085;51.428;6.796;2022-11-20T07:16:01;18.33;;;13.00;;
14019;SDS011;7085;51.428;6.796;2022-11-20T07:18:29;21.17;;;13.83;;
14019;SDS011;7085;51.428;6.796;2022-11-20T07:20:56;19.87;;;14.03;;
14019;SDS011;7085;51.428;6.796;2022-11-20T07:23:26;21.77;;;14.13;;
14019;SDS011;7085;51.428;6.796;2022-11-20T07:25:53;21.50;;;13.87;;
14019;SDS011;7085;51.428;6.796;2022-11-20T07:28:20;22.03;;;13.77;;
14019;SDS011;7085;51.428;6.796;2022-11-20T07:30:49;17.03;;;12.77;;
14019;SDS011;7085;51.428;6.796;2022-11-20T07:33:17;17.60;;;12.83;;
14019;SDS011;7085;51.428;6.796;2022-11-20T07:35:45;21.97;;;14.27;;
14019;SDS011;7085;51.428;6.796;2022-11-20T07:38:12;21.77;;;14.03;;
14019;SDS011;7085;51.428;6.796;2022-11-20T07:40:39;18.10;;;12.77;;
14019;SDS011;7085;51.428;6.796;2022-11-20T07:43:06;16.63;;;13.07;;
14019;SDS011;7085;51.428;6.796;2022-11-20T07:45:33;16.40;;;13.03;;
14019;SDS011;7085;51.428;6.796;2022-11-20T07:48:00;21.67;;;15.40;;
14019;SDS011;7085;51.428;6.796;2022-11-20T07:50:28;20.30;;;14.63;;
14019;SDS011;7085;51.428;6.796;2022-11-20T07:53:00;21.83;;;15.50;;
14019;SDS011;7085;51.428;6.796;2022-11-20T07:55:27;21.77;;;14.17;;
14019;SDS011;7085;51.428;6.796;2022-11-20T07:57:54;18.60;;;13.43;;
14019;SDS011;7085;51.428;6.796;2022-11-20T08:00:22;21.40;;;14.90;;
14019;SDS011;7085;51.428;6.796;2022-11-20T08:02:49;21.13;;;14.20;;
14019;SDS011;7085;51.428;6.796;2022-11-20T08:05:16;22.40;;;14.37;;
14019;SDS011;7085;51.428;6.796;2022-11-20T08:07:45;21.53;;;15.57;;
14019;SDS011;7085;51.428;6.796;2022-11-20T08:10:14;19.17;;;13.87;;
14019;SDS011;7085;51.428;6.796;2022-11-20T08:12:44;18.93;;;13.80;;
14019;SDS011;7085;51.428;6.796;2022-11-20T08:15:29;19.97;;;13.23;;
14019;SDS011;7085;51.428;6.796;2022-11-20T08:18:00;17.70;;;13.50;;
14019;SDS011;7085;51.428;6.796;2022-11-20T08:20:27;21.43;;;14.50;;
14019;SDS011;7085;51.428;6.796;2022-11-20T08:22:58;19.60;;;14.47;;
14019;SDS011;7085;51.428;6.796;2022-11-20T08:25:27;19.90;;;13.67;;
14019;SDS011;7085;51.428;6.796;2022-11-20T08:27:54;21.47;;;14.53;;
14019;SDS011;7085;51.428;6.796;2022-11-20T08:30:21;25.23;;;15.87;;
14019;SDS011;7085;51.428;6.796;2022-11-20T08:32:48;20.93;;;14.77;;
14019;SDS011;7085;51.428;6.796;2022-11-20T08:35:15;21.50;;;13.67;;
14019;SDS011;7085;51.428;6.796;2022-11-20T08:37:41;18.73;;;14.10;;
14019;SDS011;7085;51.428;6.796;2022-11-20T08:40:11;20.93;;;13.33;;
14019;SDS011;7085;51.428;6.796;2022-11-20T08:42:45;39.27;;;24.47;;
14019;SDS011;7085;51.428;6.796;2022-11-20T08:45:12;31.17;;;20.27;;
14019;SDS011;7085;51.428;6.796;2022-11-20T08:47:39;29.70;;;21.00;;
14019;SDS011;7085;51.428;6.796;2022-11-20T08:50:06;27.63;;;17.97;;
14019;SDS011;7085;51.428;6.796;2022-11-20T08:52:33;24.23;;;16.53;;
14019;SDS011;7085;51.428;6.796;2022-11-20T08:55:00;22.80;;;16.00;;
14019;SDS011;7085;51.428;6.796;2022-11-20T08:57:28;18.93;;;14.97;;
14019;SDS011;7085;51.428;6.796;2022-11-20T08:59:57;22.63;;;13.97;;
14019;SDS011;7085;51.428;6.796;2022-11-20T09:02:24;18.60;;;13.93;;
14019;SDS011;7085;51.428;6.796;2022-11-20T09:04:51;15.87;;;12.53;;
14019;SDS011;7085;51.428;6.796;2022-11-20T09:07:19;22.00;;;13.07;;
14019;SDS011;7085;51.428;6.796;2022-11-20T09:09:46;16.77;;;12.30;;
14019;SDS011;7085;51.428;6.796;2022-11-20T09:12:13;17.87;;;11.43;;
14019;SDS011;7085;51.428;6.796;2022-11-20T09:14:42;14.83;;;11.80;;
14019;SDS011;7085;51.428;6.796;2022-11-20T09:17:09;15.70;;;11.17;;
14019;SDS011;7085;51.428;6.796;2022-11-20T09:19:38;16.13;;;12.23;;
14019;SDS011;7085;51.428;6.796;2022-11-20T09:22:05;17.23;;;12.50;;
14019;SDS011;7085;51.428;6.796;2022-11-20T09:24:33;14.47;;;11.57;;
14019;SDS011;7085;51.428;6.796;2022-11-20T09:27:03;17.57;;;11.43;;
14019;SDS011;7085;51.428;6.796;2022-11-20T09:29:30;14.87;;;10.43;;
14019;SDS011;7085;51.428;6.796;2022-11-20T09:31:59;18.07;;;11.30;;
14019;SDS011;7085;51.428;6.796;2022-11-20T09:34:26;18.83;;;11.10;;
14019;SDS011;7085;51.428;6.796;2022-11-20T09:36:53;17.63;;;11.87;;
14019;SDS011;7085;51.428;6.796;2022-11-20T09:39:20;15.93;;;10.97;;
14019;SDS011;7085;51.428;6.796;2022-11-20T09:41:56;13.57;;;11.00;;
14019;SDS011;7085;51.428;6.796;2022-11-20T09:44:28;15.97;;;10.13;;
14019;SDS011;7085;51.428;6.796;2022-11-20T09:47:01;13.80;;;10.47;;
14019;SDS011;7085;51.428;6.796;2022-11-20T09:49:32;16.50;;;11.20;;
14019;SDS011;7085;51.428;6.796;2022-11-20T09:52:07;14.47;;;10.07;;
14019;SDS011;7085;51.428;6.796;2022-11-20T09:54:37;11.40;;;9.17;;
14019;SDS011;7085;51.428;6.796;2022-11-20T09:57:08;12.93;;;10.00;;
14019;SDS011;7085;51.428;6.796;2022-11-20T09:59:38;16.30;;;10.80;;
14019;SDS011;7085;51.428;6.796;2022-11-20T10:02:12;14.30;;;10.37;;
14019;SDS011;7085;51.428;6.796;2022-11-20T10:04:43;16.73;;;10.70;;
14019;SDS011;7085;51.428;6.796;2022-11-20T10:07:14;14.00;;;10.57;;
14019;SDS011;7085;51.428;6.796;2022-11-20T10:09:48;15.33;;;10.70;;
14019;SDS011;7085;51.428;6.796;2022-11-20T10:12:19;14.37;;;9.03;;
14019;SDS011;7085;51.428;6.796;2022-11-20T10:14:58;16.67;;;11.10;;
14019;SDS011;7085;51.428;6.796;2022-11-20T10:20:24;15.80;;;11.43;;
14019;SDS011;7085;51.428;6.796;2022-11-20T10:23:04;15.00;;;11.03;;
14019;SDS011;7085;51.428;6.796;2022-11-20T10:25:50;13.33;;;11.10;;
14019;SDS011;7085;51.428;6.796;2022-11-20T10:28:24;14.87;;;11.70;;
14019;SDS011;7085;51.428;6.796;2022-11-20T10:31:02;15.63;;;11.83;;
14019;SDS011;7085;51.428;6.796;2022-11-20T10:33:29;14.23;;;11.33;;
14019;SDS011;7085;51.428;6.796;2022-11-20T10:36:07;17.97;;;12.07;;
14019;SDS011;7085;51.428;6.796;2022-11-20T10:38:40;19.33;;;10.83;;
14019;SDS011;7085;51.428;6.796;2022-11-20T10:41:13;18.63;;;13.07;;
14019;SDS011;7085;51.428;6.796;2022-11-20T10:43:54;21.87;;;15.03;;
14019;SDS011;7085;51.428;6.796;2022-11-20T10:46:34;23.20;;;12.73;;
14019;SDS011;7085;51.428;6.796;2022-11-20T10:49:04;18.53;;;11.57;;
14019;SDS011;7085;51.428;6.796;2022-11-20T10:51:35;15.97;;;11.27;;
14019;SDS011;7085;51.428;6.796;2022-11-20T10:54:10;17.43;;;11.00;;
14019;SDS011;7085;51.428;6.796;2022-11-20T10:56:40;14.87;;;10.07;;
14019;SDS011;7085;51.428;6.796;2022-11-20T11:02:16;13.77;;;9.47;;
14019;SDS011;7085;51.428;6.796;2022-11-20T11:04:45;16.33;;;10.97;;
14019;SDS011;7085;51.428;6.796;2022-11-20T11:07:16;14.97;;;10.17;;
14019;SDS011;7085;51.428;6.796;2022-11-20T11:09:47;15.23;;;9.07;;
14019;SDS011;7085;51.428;6.796;2022-11-20T11:12:15;14.10;;;9.77;;
14019;SDS011;7085;51.428;6.796;2022-11-20T11:14:46;14.57;;;10.03;;
14019;SDS011;7085;51.428;6.796;2022-11-20T11:17:22;15.13;;;10.57;;
14019;SDS011;7085;51.428;6.796;2022-11-20T11:20:00;15.77;;;10.50;;
14019;SDS011;7085;51.428;6.796;2022-11-20T11:22:31;15.73;;;10.73;;
14019;SDS011;7085;51.428;6.796;2022-11-20T11:24:59;12.97;;;9.20;;
14019;SDS011;7085;51.428;6.796;2022-11-20T11:27:26;15.37;;;9.80;;
14019;SDS011;7085;51.428;6.796;2022-11-20T11:30:01;14.57;;;10.10;;
14019;SDS011;7085;51.428;6.796;2022-11-20T11:32:37;13.70;;;9.77;;
14019;SDS011;7085;51.428;6.796;2022-11-20T11:35:04;15.60;;;10.23;;
14019;SDS011;7085;51.428;6.796;2022-11-20T11:37:34;15.40;;;10.10;;
14019;SDS011;7085;51.428;6.796;2022-11-20T11:40:05;16.47;;;10.43;;
14019;SDS011;7085;51.428;6.796;2022-11-20T11:42:40;13.87;;;9.10;;
14019;SDS011;7085;51.428;6.796;2022-11-20T11:45:11;14.67;;;10.50;;
14019;SDS011;7085;51.428;6.796;2022-11-20T11:47:44;13.07;;;9.70;;
14019;SDS011;7085;51.428;6.796;2022-11-20T11:50:17;13.67;;;9.47;;
14019;SDS011;7085;51.428;6.796;2022-11-20T11:52:50;14.40;;;9.87;;
14019;SDS011;7085;51.428;6.796;2022-11-20T11:55:24;14.67;;;9.47;;
14019;SDS011;7085;51.428;6.796;2022-11-20T11:57:57;13.47;;;9.30;;
14019;SDS011;7085;51.428;6.796;2022-11-20T12:00:37;14.80;;;9.83;;
14019;SDS011;7085;51.428;6.796;2022-11-20T12:03:09;15.17;;;10.10;;
14019;SDS011;7085;51.428;6.796;2022-11-20T12:05:42;15.47;;;10.90;;
14019;SDS011;7085;51.428;6.796;2022-11-20T12:08:14;16.73;;;10.87;;
14019;SDS011;7085;51.428;6.796;2022-11-20T12:10:43;16.77;;;10.57;;
14019;SDS011;7085;51.428;6.796;2022-11-20T12:13:17;16.00;;;10.50;;
14019;SDS011;7085;51.428;6.796;2022-11-20T12:15:47;15.20;;;10.17;;
14019;SDS011;7085;51.428;6.796;2022-11-20T12:18:15;12.30;;;9.03;;
14019;SDS011;7085;51.428;6.796;2022-11-20T12:20:45;15.53;;;11.43;;
14019;SDS011;7085;51.428;6.796;2022-11-20T12:23:16;14.33;;;9.57;;
14019;SDS011;7085;51.428;6.796;2022-11-20T12:25:46;13.57;;;9.33;;
14019;SDS011;7085;51.428;6.796;2022-11-20T12:28:20;17.07;;;10.50;;
14019;SDS011;7085;51.428;6.796;2022-11-20T12:30:52;16.80;;;11.00;;
14019;SDS011;7085;51.428;6.796;2022-11-20T12:33:35;16.13;;;10.07;;
14019;SDS011;7085;51.428;6.796;2022-11-20T12:36:12;16.93;;;10.43;;
14019;SDS011;7085;51.428;6.796;2022-11-20T12:38:57;16.03;;;10.57;;
14019;SDS011;7085;51.428;6.796;2022-11-20T12:41:39;18.37;;;10.70;;
14019;SDS011;7085;51.428;6.796;2022-11-20T12:44:32;15.60;;;9.40;;
14019;SDS011;7085;51.428;6.796;2022-11-20T12:47:31;14.60;;;10.03;;
14019;SDS011;7085;51.428;6.796;2022-11-20T12:50:02;15.20;;;10.40;;
14019;SDS011;7085;51.428;6.796;2022-11-20T12:52:37;15.20;;;11.03;;
14019;SDS011;7085;51.428;6.796;2022-11-20T12:57:55;19.43;;;10.33;;
14019;SDS011;7085;51.428;6.796;2022-11-20T13:00:23;17.50;;;11.03;;
14019;SDS011;7085;51.428;6.796;2022-11-20T13:02:58;16.00;;;10.73;;
14019;SDS011;7085;51.428;6.796;2022-11-20T13:05:29;15.90;;;10.53;;
14019;SDS011;7085;51.428;6.796;2022-11-20T13:07:58;13.57;;;9.60;;
14019;SDS011;7085;51.428;6.796;2022-11-20T13:10:31;15.90;;;10.30;;
14019;SDS011;7085;51.428;6.796;2022-11-20T13:13:03;16.77;;;10.60;;
14019;SDS011;7085;51.428;6.796;2022-11-20T13:15:40;14.37;;;9.50;;
14019;SDS011;7085;51.428;6.796;2022-11-20T13:18:10;15.60;;;10.53;;
14019;SDS011;7085;51.428;6.796;2022-11-20T13:20:42;13.77;;;9.67;;
14019;SDS011;7085;51.428;6.796;2022-11-20T13:23:10;17.07;;;10.77;;
14019;SDS011;7085;51.428;6.796;2022-11-20T13:25:38;14.80;;;10.40;;
14019;SDS011;7085;51.428;6.796;2022-11-20T13:30:57;15.20;;;9.77;;
14019;SDS011;7085;51.428;6.796;2022-11-20T13:33:29;12.87;;;9.67;;
14019;SDS011;7085;51.428;6.796;2022-11-20T13:35:58;12.90;;;9.73;;
14019;SDS011;7085;51.428;6.796;2022-11-20T13:38:25;13.23;;;9.50;;
14019;SDS011;7085;51.428;6.796;2022-11-20T13:40:53;17.07;;;10.80;;
14019;SDS011;7085;51.428;6.796;2022-11-20T13:43:22;16.40;;;11.13;;
14019;SDS011;7085;51.428;6.796;2022-11-20T13:46:00;14.97;;;9.23;;
14019;SDS011;7085;51.428;6.796;2022-11-20T13:48:29;14.60;;;10.70;;
14019;SDS011;7085;51.428;6.796;2022-11-20T13:51:06;15.87;;;10.70;;
14019;SDS011;7085;51.428;6.796;2022-11-20T13:53:48;17.80;;;11.07;;
14019;SDS011;7085;51.428;6.796;2022-11-20T13:56:20;19.93;;;10.83;;
14019;SDS011;7085;51.428;6.796;2022-11-20T13:58:54;16.57;;;10.80;;
14019;SDS011;7085;51.428;6.796;2022-11-20T14:01:30;17.27;;;11.40;;
14019;SDS011;7085;51.428;6.796;2022-11-20T14:03:57;20.53;;;10.73;;
14019;SDS011;7085;51.428;6.796;2022-11-20T14:06:26;16.50;;;11.93;;
14019;SDS011;7085;51.428;6.796;2022-11-20T14:08:53;17.03;;;10.80;;
14019;SDS011;7085;51.428;6.796;2022-11-20T14:11:21;17.50;;;10.77;;
14019;SDS011;7085;51.428;6.796;2022-11-20T14:13:55;17.37;;;10.60;;
14019;SDS011;7085;51.428;6.796;2022-11-20T14:16:23;16.03;;;10.93;;
14019;SDS011;7085;51.428;6.796;2022-11-20T14:18:50;18.07;;;11.43;;
14019;SDS011;7085;51.428;6.796;2022-11-20T14:21:24;14.87;;;11.00;;
14019;SDS011;7085;51.428;6.796;2022-11-20T14:24:02;14.37;;;10.07;;
14019;SDS011;7085;51.428;6.796;2022-11-20T14:26:30;16.40;;;11.13;;
14019;SDS011;7085;51.428;6.796;2022-11-20T14:28:58;16.90;;;11.33;;
14019;SDS011;7085;51.428;6.796;2022-11-20T14:31:26;18.60;;;12.70;;
14019;SDS011;7085;51.428;6.796;2022-11-20T14:33:54;19.83;;;12.07;;
14019;SDS011;7085;51.428;6.796;2022-11-20T14:36:22;16.97;;;11.67;;
14019;SDS011;7085;51.428;6.796;2022-11-20T14:38:49;18.87;;;11.93;;
14019;SDS011;7085;51.428;6.796;2022-11-20T14:41:18;18.77;;;12.83;;
14019;SDS011;7085;51.428;6.796;2022-11-20T14:43:45;16.47;;;11.03;;
14019;SDS011;7085;51.428;6.796;2022-11-20T14:46:14;19.43;;;12.67;;
14019;SDS011;7085;51.428;6.796;2022-11-20T14:48:43;17.77;;;11.67;;
14019;SDS011;7085;51.428;6.796;2022-11-20T14:51:15;20.60;;;12.87;;
14019;SDS011;7085;51.428;6.796;2022-11-20T14:53:49;17.13;;;11.53;;
14019;SDS011;7085;51.428;6.796;2022-11-20T14:56:20;17.87;;;11.87;;
14019;SDS011;7085;51.428;6.796;2022-11-20T14:58:54;18.43;;;11.67;;
14019;SDS011;7085;51.428;6.796;2022-11-20T15:01:26;17.77;;;11.80;;
14019;SDS011;7085;51.428;6.796;2022-11-20T15:03:59;16.03;;;11.90;;